sensor_id;sensor_type;location;lat;lon;timestamp;temperature;humidity
78788;DHT22;68131;52.508;5.502;2023-05-19T00:00:17;10.20;71.00
78788;DHT22;68131;52.508;5.502;2023-05-19T00:02:47;10.20;70.90
78788;DHT22;68131;52.508;5.502;2023-05-19T00:05:18;10.20;71.00
78788;DHT22;68131;52.508;5.502;2023-05-19T00:07:51;10.20;71.00
78788;DHT22;68131;52.508;5.502;2023-05-19T00:10:26;10.20;71.00
78788;DHT22;68131;52.508;5.502;2023-05-19T00:13:01;10.20;71.00
78788;DHT22;68131;52.508;5.502;2023-05-19T00:15:31;10.20;71.00
78788;DHT22;68131;52.508;5.502;2023-05-19T00:18:04;10.20;71.20
78788;DHT22;68131;52.508;5.502;2023-05-19T00:20:34;10.10;71.20
78788;DHT22;68131;52.508;5.502;2023-05-19T00:23:03;10.10;71.30
78788;DHT22;68131;52.508;5.502;2023-05-19T00:25:32;10.10;71.30
78788;DHT22;68131;52.508;5.502;2023-05-19T00:28:04;10.10;71.50
78788;DHT22;68131;52.508;5.502;2023-05-19T00:30:33;10.00;71.50
78788;DHT22;68131;52.508;5.502;2023-05-19T00:33:04;10.00;71.80
78788;DHT22;68131;52.508;5.502;2023-05-19T00:35:33;10.00;71.70
78788;DHT22;68131;52.508;5.502;2023-05-19T00:38:02;10.00;71.70
78788;DHT22;68131;52.508;5.502;2023-05-19T00:40:34;10.00;71.70
78788;DHT22;68131;52.508;5.502;2023-05-19T00:43:07;10.00;71.70
78788;DHT22;68131;52.508;5.502;2023-05-19T00:45:37;9.90;72.00
78788;DHT22;68131;52.508;5.502;2023-05-19T00:48:07;9.90;72.30
78788;DHT22;68131;52.508;5.502;2023-05-19T00:50:36;9.80;72.40
78788;DHT22;68131;52.508;5.502;2023-05-19T00:53:06;9.90;72.30
78788;DHT22;68131;52.508;5.502;2023-05-19T00:55:36;9.90;72.40
78788;DHT22;68131;52.508;5.502;2023-05-19T00:58:09;9.80;72.30
78788;DHT22;68131;52.508;5.502;2023-05-19T01:00:41;9.80;72.40
78788;DHT22;68131;52.508;5.502;2023-05-19T01:03:10;9.80;72.50
78788;DHT22;68131;52.508;5.502;2023-05-19T01:05:42;9.80;72.70
78788;DHT22;68131;52.508;5.502;2023-05-19T01:08:16;9.80;72.80
78788;DHT22;68131;52.508;5.502;2023-05-19T01:10:46;9.70;73.00
78788;DHT22;68131;52.508;5.502;2023-05-19T01:13:20;9.70;73.10
78788;DHT22;68131;52.508;5.502;2023-05-19T01:15:58;9.70;73.20
78788;DHT22;68131;52.508;5.502;2023-05-19T01:18:40;9.70;73.20
78788;DHT22;68131;52.508;5.502;2023-05-19T01:24:38;9.70;73.20
78788;DHT22;68131;52.508;5.502;2023-05-19T01:27:38;9.70;73.50
78788;DHT22;68131;52.508;5.502;2023-05-19T01:30:23;9.70;73.60
78788;DHT22;68131;52.508;5.502;2023-05-19T01:32:57;9.70;73.60
78788;DHT22;68131;52.508;5.502;2023-05-19T01:35:27;9.70;73.70
78788;DHT22;68131;52.508;5.502;2023-05-19T01:38:01;9.70;73.80
78788;DHT22;68131;52.508;5.502;2023-05-19T01:40:32;9.70;73.60
78788;DHT22;68131;52.508;5.502;2023-05-19T01:43:02;9.70;73.60
78788;DHT22;68131;52.508;5.502;2023-05-19T01:45:38;9.70;73.60
78788;DHT22;68131;52.508;5.502;2023-05-19T01:48:08;9.70;73.70
78788;DHT22;68131;52.508;5.502;2023-05-19T01:50:39;9.70;73.80
78788;DHT22;68131;52.508;5.502;2023-05-19T01:53:10;9.70;73.90
78788;DHT22;68131;52.508;5.502;2023-05-19T01:55:45;9.70;74.00
78788;DHT22;68131;52.508;5.502;2023-05-19T01:58:19;9.70;74.00
78788;DHT22;68131;52.508;5.502;2023-05-19T02:00:56;9.70;73.90
78788;DHT22;68131;52.508;5.502;2023-05-19T02:03:36;9.70;73.90
78788;DHT22;68131;52.508;5.502;2023-05-19T02:06:20;9.70;73.80
78788;DHT22;68131;52.508;5.502;2023-05-19T02:08:56;9.70;73.80
78788;DHT22;68131;52.508;5.502;2023-05-19T02:11:33;9.70;73.70
78788;DHT22;68131;52.508;5.502;2023-05-19T02:14:08;9.70;73.80
78788;DHT22;68131;52.508;5.502;2023-05-19T02:16:44;9.70;73.90
78788;DHT22;68131;52.508;5.502;2023-05-19T02:19:20;9.70;73.90
78788;DHT22;68131;52.508;5.502;2023-05-19T02:21:51;9.60;74.00
78788;DHT22;68131;52.508;5.502;2023-05-19T02:24:21;9.70;74.00
78788;DHT22;68131;52.508;5.502;2023-05-19T02:26:52;9.60;74.00
78788;DHT22;68131;52.508;5.502;2023-05-19T02:29:21;9.60;74.00
78788;DHT22;68131;52.508;5.502;2023-05-19T02:31:54;9.70;74.10
78788;DHT22;68131;52.508;5.502;2023-05-19T02:34:23;9.60;74.20
78788;DHT22;68131;52.508;5.502;2023-05-19T02:36:52;9.70;74.60
78788;DHT22;68131;52.508;5.502;2023-05-19T02:39:23;9.70;74.30
78788;DHT22;68131;52.508;5.502;2023-05-19T02:41:54;9.60;74.30
78788;DHT22;68131;52.508;5.502;2023-05-19T02:44:23;9.60;74.30
78788;DHT22;68131;52.508;5.502;2023-05-19T02:46:59;9.50;74.40
78788;DHT22;68131;52.508;5.502;2023-05-19T02:49:29;9.60;74.50
78788;DHT22;68131;52.508;5.502;2023-05-19T02:52:03;9.50;74.50
78788;DHT22;68131;52.508;5.502;2023-05-19T02:54:33;9.50;74.70
78788;DHT22;68131;52.508;5.502;2023-05-19T02:57:03;9.50;74.80
78788;DHT22;68131;52.508;5.502;2023-05-19T02:59:36;9.50;74.90
78788;DHT22;68131;52.508;5.502;2023-05-19T03:02:12;9.50;74.90
78788;DHT22;68131;52.508;5.502;2023-05-19T03:04:46;9.40;74.90
78788;DHT22;68131;52.508;5.502;2023-05-19T03:07:16;9.40;74.90
78788;DHT22;68131;52.508;5.502;2023-05-19T03:09:55;9.40;74.90
78788;DHT22;68131;52.508;5.502;2023-05-19T03:12:27;9.40;74.90
78788;DHT22;68131;52.508;5.502;2023-05-19T03:14:57;9.50;74.70
78788;DHT22;68131;52.508;5.502;2023-05-19T03:17:29;9.50;74.80
78788;DHT22;68131;52.508;5.502;2023-05-19T03:19:59;9.40;74.80
78788;DHT22;68131;52.508;5.502;2023-05-19T03:22:32;9.40;74.90
78788;DHT22;68131;52.508;5.502;2023-05-19T03:25:02;9.40;75.00
78788;DHT22;68131;52.508;5.502;2023-05-19T03:27:32;9.40;75.00
78788;DHT22;68131;52.508;5.502;2023-05-19T03:30:02;9.40;75.00
78788;DHT22;68131;52.508;5.502;2023-05-19T03:32:34;9.40;75.10
78788;DHT22;68131;52.508;5.502;2023-05-19T03:35:05;9.40;75.10
78788;DHT22;68131;52.508;5.502;2023-05-19T03:37:35;9.40;75.20
78788;DHT22;68131;52.508;5.502;2023-05-19T03:40:08;9.40;75.20
78788;DHT22;68131;52.508;5.502;2023-05-19T03:42:42;9.40;75.30
78788;DHT22;68131;52.508;5.502;2023-05-19T03:45:13;9.40;75.40
78788;DHT22;68131;52.508;5.502;2023-05-19T03:47:50;9.30;75.40
78788;DHT22;68131;52.508;5.502;2023-05-19T03:50:51;9.30;75.70
78788;DHT22;68131;52.508;5.502;2023-05-19T03:53:25;9.30;75.70
78788;DHT22;68131;52.508;5.502;2023-05-19T03:55:55;9.30;75.80
78788;DHT22;68131;52.508;5.502;2023-05-19T03:58:24;9.30;75.90
78788;DHT22;68131;52.508;5.502;2023-05-19T04:00:55;9.30;76.10
78788;DHT22;68131;52.508;5.502;2023-05-19T04:03:27;9.30;76.10
78788;DHT22;68131;52.508;5.502;2023-05-19T04:05:58;9.30;76.10
78788;DHT22;68131;52.508;5.502;2023-05-19T04:08:29;9.30;76.20
78788;DHT22;68131;52.508;5.502;2023-05-19T04:10:58;9.30;76.40
78788;DHT22;68131;52.508;5.502;2023-05-19T04:13:31;9.30;76.50
78788;DHT22;68131;52.508;5.502;2023-05-19T04:16:00;9.30;76.40
78788;DHT22;68131;52.508;5.502;2023-05-19T04:18:34;9.30;76.50
78788;DHT22;68131;52.508;5.502;2023-05-19T04:21:07;9.40;76.60
78788;DHT22;68131;52.508;5.502;2023-05-19T04:23:45;9.40;76.60
78788;DHT22;68131;52.508;5.502;2023-05-19T04:26:16;9.40;76.60
78788;DHT22;68131;52.508;5.502;2023-05-19T04:28:47;9.50;76.60
78788;DHT22;68131;52.508;5.502;2023-05-19T04:31:19;9.50;76.70
78788;DHT22;68131;52.508;5.502;2023-05-19T04:33:52;9.60;76.80
78788;DHT22;68131;52.508;5.502;2023-05-19T04:36:23;9.60;76.70
78788;DHT22;68131;52.508;5.502;2023-05-19T04:38:57;9.70;76.60
78788;DHT22;68131;52.508;5.502;2023-05-19T04:41:28;9.70;76.50
78788;DHT22;68131;52.508;5.502;2023-05-19T04:44:00;9.80;76.40
78788;DHT22;68131;52.508;5.502;2023-05-19T04:46:29;9.80;76.30
78788;DHT22;68131;52.508;5.502;2023-05-19T04:49:02;9.90;76.30
78788;DHT22;68131;52.508;5.502;2023-05-19T04:51:33;10.00;76.30
78788;DHT22;68131;52.508;5.502;2023-05-19T04:54:06;10.10;76.00
78788;DHT22;68131;52.508;5.502;2023-05-19T04:56:35;10.40;75.80
78788;DHT22;68131;52.508;5.502;2023-05-19T04:59:09;10.80;75.30
78788;DHT22;68131;52.508;5.502;2023-05-19T05:01:38;11.20;74.60
78788;DHT22;68131;52.508;5.502;2023-05-19T05:04:13;11.50;73.60
78788;DHT22;68131;52.508;5.502;2023-05-19T05:06:44;11.90;72.80
78788;DHT22;68131;52.508;5.502;2023-05-19T05:09:17;12.10;71.70
78788;DHT22;68131;52.508;5.502;2023-05-19T05:11:51;12.30;71.30
78788;DHT22;68131;52.508;5.502;2023-05-19T05:14:20;12.50;70.70
78788;DHT22;68131;52.508;5.502;2023-05-19T05:16:52;12.80;70.30
78788;DHT22;68131;52.508;5.502;2023-05-19T05:19:29;12.90;69.50
78788;DHT22;68131;52.508;5.502;2023-05-19T05:21:59;13.00;68.70
78788;DHT22;68131;52.508;5.502;2023-05-19T05:24:30;13.00;68.50
78788;DHT22;68131;52.508;5.502;2023-05-19T05:27:08;13.10;68.20
78788;DHT22;68131;52.508;5.502;2023-05-19T05:29:41;13.00;68.50
78788;DHT22;68131;52.508;5.502;2023-05-19T05:32:10;13.10;67.90
78788;DHT22;68131;52.508;5.502;2023-05-19T05:34:45;13.10;67.60
78788;DHT22;68131;52.508;5.502;2023-05-19T05:37:16;13.30;67.50
78788;DHT22;68131;52.508;5.502;2023-05-19T05:39:45;13.50;67.00
78788;DHT22;68131;52.508;5.502;2023-05-19T05:42:14;13.50;66.50
78788;DHT22;68131;52.508;5.502;2023-05-19T05:44:46;13.60;66.60
78788;DHT22;68131;52.508;5.502;2023-05-19T05:47:16;13.70;66.10
78788;DHT22;68131;52.508;5.502;2023-05-19T05:49:49;13.80;65.80
78788;DHT22;68131;52.508;5.502;2023-05-19T05:52:20;13.90;65.50
78788;DHT22;68131;52.508;5.502;2023-05-19T05:54:51;14.00;65.30
78788;DHT22;68131;52.508;5.502;2023-05-19T05:57:22;14.30;64.80
78788;DHT22;68131;52.508;5.502;2023-05-19T05:59:52;14.60;64.40
78788;DHT22;68131;52.508;5.502;2023-05-19T06:02:22;14.80;64.30
78788;DHT22;68131;52.508;5.502;2023-05-19T06:05:01;15.20;63.10
78788;DHT22;68131;52.508;5.502;2023-05-19T06:07:31;15.30;62.80
78788;DHT22;68131;52.508;5.502;2023-05-19T06:10:01;15.30;62.50
78788;DHT22;68131;52.508;5.502;2023-05-19T06:12:30;15.30;61.80
78788;DHT22;68131;52.508;5.502;2023-05-19T06:15:01;15.20;62.00
78788;DHT22;68131;52.508;5.502;2023-05-19T06:17:51;15.20;62.00
78788;DHT22;68131;52.508;5.502;2023-05-19T06:20:23;15.30;61.70
78788;DHT22;68131;52.508;5.502;2023-05-19T06:22:54;15.40;61.60
78788;DHT22;68131;52.508;5.502;2023-05-19T06:25:26;15.40;61.60
78788;DHT22;68131;52.508;5.502;2023-05-19T06:27:58;15.50;61.10
78788;DHT22;68131;52.508;5.502;2023-05-19T06:30:28;15.50;60.70
78788;DHT22;68131;52.508;5.502;2023-05-19T06:33:16;15.40;60.50
78788;DHT22;68131;52.508;5.502;2023-05-19T06:35:49;15.20;61.20
78788;DHT22;68131;52.508;5.502;2023-05-19T06:38:21;15.10;61.40
78788;DHT22;68131;52.508;5.502;2023-05-19T06:40:50;15.20;61.40
78788;DHT22;68131;52.508;5.502;2023-05-19T06:43:19;15.10;61.30
78788;DHT22;68131;52.508;5.502;2023-05-19T06:45:58;15.00;61.40
78788;DHT22;68131;52.508;5.502;2023-05-19T06:48:30;15.00;61.10
78788;DHT22;68131;52.508;5.502;2023-05-19T06:51:02;15.00;61.50
78788;DHT22;68131;52.508;5.502;2023-05-19T06:53:33;15.20;61.50
78788;DHT22;68131;52.508;5.502;2023-05-19T06:56:07;15.50;60.70
78788;DHT22;68131;52.508;5.502;2023-05-19T06:58:39;15.70;60.60
78788;DHT22;68131;52.508;5.502;2023-05-19T07:01:08;15.90;60.70
78788;DHT22;68131;52.508;5.502;2023-05-19T07:03:43;16.20;60.30
78788;DHT22;68131;52.508;5.502;2023-05-19T07:06:18;16.40;60.20
78788;DHT22;68131;52.508;5.502;2023-05-19T07:09:03;16.60;59.60
78788;DHT22;68131;52.508;5.502;2023-05-19T07:11:37;16.50;59.20
78788;DHT22;68131;52.508;5.502;2023-05-19T07:14:09;16.40;59.20
78788;DHT22;68131;52.508;5.502;2023-05-19T07:16:38;16.60;58.60
78788;DHT22;68131;52.508;5.502;2023-05-19T07:19:07;16.70;58.50
78788;DHT22;68131;52.508;5.502;2023-05-19T07:21:41;16.70;58.60
78788;DHT22;68131;52.508;5.502;2023-05-19T07:24:13;16.80;58.10
78788;DHT22;68131;52.508;5.502;2023-05-19T07:26:42;16.90;57.80
78788;DHT22;68131;52.508;5.502;2023-05-19T07:29:11;16.80;57.50
78788;DHT22;68131;52.508;5.502;2023-05-19T07:31:40;16.70;57.80
78788;DHT22;68131;52.508;5.502;2023-05-19T07:34:13;16.70;58.00
78788;DHT22;68131;52.508;5.502;2023-05-19T07:36:45;16.60;58.30
78788;DHT22;68131;52.508;5.502;2023-05-19T07:39:14;16.50;58.50
78788;DHT22;68131;52.508;5.502;2023-05-19T07:41:43;16.50;58.50
78788;DHT22;68131;52.508;5.502;2023-05-19T07:44:17;16.60;58.60
78788;DHT22;68131;52.508;5.502;2023-05-19T07:46:46;16.60;58.20
78788;DHT22;68131;52.508;5.502;2023-05-19T07:49:15;16.50;58.30
78788;DHT22;68131;52.508;5.502;2023-05-19T07:51:49;16.30;57.90
78788;DHT22;68131;52.508;5.502;2023-05-19T07:54:18;16.20;58.20
78788;DHT22;68131;52.508;5.502;2023-05-19T07:56:47;16.20;58.50
78788;DHT22;68131;52.508;5.502;2023-05-19T07:59:16;16.20;58.80
78788;DHT22;68131;52.508;5.502;2023-05-19T08:01:46;16.50;58.40
78788;DHT22;68131;52.508;5.502;2023-05-19T08:04:15;16.70;58.40
78788;DHT22;68131;52.508;5.502;2023-05-19T08:06:51;17.00;58.20
78788;DHT22;68131;52.508;5.502;2023-05-19T08:09:20;17.20;57.40
78788;DHT22;68131;52.508;5.502;2023-05-19T08:12:04;17.40;57.50
78788;DHT22;68131;52.508;5.502;2023-05-19T08:14:34;17.50;56.40
78788;DHT22;68131;52.508;5.502;2023-05-19T08:17:03;17.30;56.40
78788;DHT22;68131;52.508;5.502;2023-05-19T08:19:35;17.00;57.00
78788;DHT22;68131;52.508;5.502;2023-05-19T08:22:07;16.90;57.30
78788;DHT22;68131;52.508;5.502;2023-05-19T08:24:36;17.10;57.20
78788;DHT22;68131;52.508;5.502;2023-05-19T08:27:07;17.20;56.90
78788;DHT22;68131;52.508;5.502;2023-05-19T08:29:38;17.40;57.30
78788;DHT22;68131;52.508;5.502;2023-05-19T08:32:07;17.60;56.30
78788;DHT22;68131;52.508;5.502;2023-05-19T08:34:36;17.70;55.60
78788;DHT22;68131;52.508;5.502;2023-05-19T08:37:08;17.80;54.80
78788;DHT22;68131;52.508;5.502;2023-05-19T08:39:38;17.70;55.20
78788;DHT22;68131;52.508;5.502;2023-05-19T08:42:10;17.70;55.00
78788;DHT22;68131;52.508;5.502;2023-05-19T08:44:40;17.70;55.30
78788;DHT22;68131;52.508;5.502;2023-05-19T08:47:11;17.80;55.50
78788;DHT22;68131;52.508;5.502;2023-05-19T08:49:43;17.80;54.50
78788;DHT22;68131;52.508;5.502;2023-05-19T08:52:23;17.80;54.70
78788;DHT22;68131;52.508;5.502;2023-05-19T08:54:54;17.80;54.70
78788;DHT22;68131;52.508;5.502;2023-05-19T08:57:27;17.80;54.40
78788;DHT22;68131;52.508;5.502;2023-05-19T08:59:58;17.80;54.40
78788;DHT22;68131;52.508;5.502;2023-05-19T09:02:30;17.70;54.90
78788;DHT22;68131;52.508;5.502;2023-05-19T09:05:01;17.70;54.80
78788;DHT22;68131;52.508;5.502;2023-05-19T09:07:34;17.70;55.20
78788;DHT22;68131;52.508;5.502;2023-05-19T09:10:04;17.80;54.70
78788;DHT22;68131;52.508;5.502;2023-05-19T09:12:34;17.80;55.30
78788;DHT22;68131;52.508;5.502;2023-05-19T09:15:04;18.00;54.40
78788;DHT22;68131;52.508;5.502;2023-05-19T09:17:38;18.20;53.60
78788;DHT22;68131;52.508;5.502;2023-05-19T09:20:08;18.30;53.60
78788;DHT22;68131;52.508;5.502;2023-05-19T09:22:44;18.30;53.20
78788;DHT22;68131;52.508;5.502;2023-05-19T09:25:21;18.40;52.90
78788;DHT22;68131;52.508;5.502;2023-05-19T09:27:52;18.60;52.60
78788;DHT22;68131;52.508;5.502;2023-05-19T09:30:23;18.80;52.60
78788;DHT22;68131;52.508;5.502;2023-05-19T09:32:54;18.90;52.10
78788;DHT22;68131;52.508;5.502;2023-05-19T09:35:23;18.80;52.30
78788;DHT22;68131;52.508;5.502;2023-05-19T09:37:55;18.60;52.50
78788;DHT22;68131;52.508;5.502;2023-05-19T09:40:27;18.70;53.00
78788;DHT22;68131;52.508;5.502;2023-05-19T09:42:56;18.90;51.60
78788;DHT22;68131;52.508;5.502;2023-05-19T09:45:27;18.90;51.30
78788;DHT22;68131;52.508;5.502;2023-05-19T09:47:56;18.70;51.60
78788;DHT22;68131;52.508;5.502;2023-05-19T09:50:28;18.40;52.20
78788;DHT22;68131;52.508;5.502;2023-05-19T09:53:00;18.50;52.20
78788;DHT22;68131;52.508;5.502;2023-05-19T09:55:30;18.60;51.50
78788;DHT22;68131;52.508;5.502;2023-05-19T09:58:01;18.80;51.40
78788;DHT22;68131;52.508;5.502;2023-05-19T10:00:33;19.00;50.90
78788;DHT22;68131;52.508;5.502;2023-05-19T10:03:03;19.00;51.30
78788;DHT22;68131;52.508;5.502;2023-05-19T10:05:32;19.00;50.80
78788;DHT22;68131;52.508;5.502;2023-05-19T10:08:05;19.00;49.90
78788;DHT22;68131;52.508;5.502;2023-05-19T10:10:37;19.10;49.50
78788;DHT22;68131;52.508;5.502;2023-05-19T10:13:06;19.20;48.80
78788;DHT22;68131;52.508;5.502;2023-05-19T10:15:39;19.10;48.10
78788;DHT22;68131;52.508;5.502;2023-05-19T10:18:11;19.00;48.10
78788;DHT22;68131;52.508;5.502;2023-05-19T10:20:40;19.00;47.50
78788;DHT22;68131;52.508;5.502;2023-05-19T10:23:12;19.00;48.20
78788;DHT22;68131;52.508;5.502;2023-05-19T10:25:42;19.10;48.20
78788;DHT22;68131;52.508;5.502;2023-05-19T10:28:16;19.10;47.90
78788;DHT22;68131;52.508;5.502;2023-05-19T10:30:49;19.10;48.10
78788;DHT22;68131;52.508;5.502;2023-05-19T10:33:19;19.10;47.70
78788;DHT22;68131;52.508;5.502;2023-05-19T10:36:04;19.10;48.00
78788;DHT22;68131;52.508;5.502;2023-05-19T10:38:44;19.20;48.50
78788;DHT22;68131;52.508;5.502;2023-05-19T10:41:26;19.10;48.60
78788;DHT22;68131;52.508;5.502;2023-05-19T10:44:06;19.20;48.60
78788;DHT22;68131;52.508;5.502;2023-05-19T10:46:39;19.20;48.50
78788;DHT22;68131;52.508;5.502;2023-05-19T10:49:19;19.20;49.20
78788;DHT22;68131;52.508;5.502;2023-05-19T10:51:48;19.30;49.00
78788;DHT22;68131;52.508;5.502;2023-05-19T10:54:38;19.30;48.90
78788;DHT22;68131;52.508;5.502;2023-05-19T10:57:08;19.30;48.90
78788;DHT22;68131;52.508;5.502;2023-05-19T10:59:42;19.30;48.80
78788;DHT22;68131;52.508;5.502;2023-05-19T11:05:28;19.30;49.20
78788;DHT22;68131;52.508;5.502;2023-05-19T11:07:59;19.30;48.80
78788;DHT22;68131;52.508;5.502;2023-05-19T11:10:38;19.20;48.50
78788;DHT22;68131;52.508;5.502;2023-05-19T11:13:18;19.20;48.90
78788;DHT22;68131;52.508;5.502;2023-05-19T11:15:47;19.20;49.30
78788;DHT22;68131;52.508;5.502;2023-05-19T11:18:19;19.20;48.30
78788;DHT22;68131;52.508;5.502;2023-05-19T11:20:55;19.10;49.10
78788;DHT22;68131;52.508;5.502;2023-05-19T11:23:32;19.10;48.20
78788;DHT22;68131;52.508;5.502;2023-05-19T11:26:10;19.10;48.80
78788;DHT22;68131;52.508;5.502;2023-05-19T11:28:40;19.20;48.70
78788;DHT22;68131;52.508;5.502;2023-05-19T11:31:10;19.20;48.00
78788;DHT22;68131;52.508;5.502;2023-05-19T11:33:40;19.20;48.60
78788;DHT22;68131;52.508;5.502;2023-05-19T11:36:11;19.30;47.30
78788;DHT22;68131;52.508;5.502;2023-05-19T11:38:46;19.20;47.40
78788;DHT22;68131;52.508;5.502;2023-05-19T11:41:22;19.20;47.80
78788;DHT22;68131;52.508;5.502;2023-05-19T11:43:53;19.20;48.20
78788;DHT22;68131;52.508;5.502;2023-05-19T11:46:22;19.30;47.10
78788;DHT22;68131;52.508;5.502;2023-05-19T11:48:56;19.30;47.50
78788;DHT22;68131;52.508;5.502;2023-05-19T11:51:33;19.40;47.60
78788;DHT22;68131;52.508;5.502;2023-05-19T11:54:04;19.50;46.50
78788;DHT22;68131;52.508;5.502;2023-05-19T11:56:39;19.40;45.80
78788;DHT22;68131;52.508;5.502;2023-05-19T11:59:08;19.40;46.00
78788;DHT22;68131;52.508;5.502;2023-05-19T12:01:40;19.20;46.50
78788;DHT22;68131;52.508;5.502;2023-05-19T12:04:13;19.20;46.60
78788;DHT22;68131;52.508;5.502;2023-05-19T12:06:43;19.20;46.20
78788;DHT22;68131;52.508;5.502;2023-05-19T12:09:12;19.20;46.30
78788;DHT22;68131;52.508;5.502;2023-05-19T12:11:46;19.10;46.50
78788;DHT22;68131;52.508;5.502;2023-05-19T12:14:17;19.10;46.70
78788;DHT22;68131;52.508;5.502;2023-05-19T12:16:46;19.20;46.60
78788;DHT22;68131;52.508;5.502;2023-05-19T12:19:16;19.20;46.20
78788;DHT22;68131;52.508;5.502;2023-05-19T12:21:46;19.20;46.70
78788;DHT22;68131;52.508;5.502;2023-05-19T12:24:16;19.10;46.30
78788;DHT22;68131;52.508;5.502;2023-05-19T12:26:52;19.20;45.50
78788;DHT22;68131;52.508;5.502;2023-05-19T12:29:34;19.20;45.50
78788;DHT22;68131;52.508;5.502;2023-05-19T12:32:07;19.20;45.60
78788;DHT22;68131;52.508;5.502;2023-05-19T12:34:38;19.10;45.90
78788;DHT22;68131;52.508;5.502;2023-05-19T12:37:09;19.10;46.10
78788;DHT22;68131;52.508;5.502;2023-05-19T12:39:40;19.20;46.20
78788;DHT22;68131;52.508;5.502;2023-05-19T12:42:12;19.20;46.10
78788;DHT22;68131;52.508;5.502;2023-05-19T12:44:46;19.10;46.00
78788;DHT22;68131;52.508;5.502;2023-05-19T12:47:17;19.10;46.30
78788;DHT22;68131;52.508;5.502;2023-05-19T12:49:59;19.00;46.50
78788;DHT22;68131;52.508;5.502;2023-05-19T12:52:29;19.10;46.40
78788;DHT22;68131;52.508;5.502;2023-05-19T12:55:01;19.10;46.70
78788;DHT22;68131;52.508;5.502;2023-05-19T12:57:34;19.20;46.70
78788;DHT22;68131;52.508;5.502;2023-05-19T13:00:06;19.20;47.10
78788;DHT22;68131;52.508;5.502;2023-05-19T13:02:54;19.20;47.40
78788;DHT22;68131;52.508;5.502;2023-05-19T13:05:23;19.30;47.00
78788;DHT22;68131;52.508;5.502;2023-05-19T13:07:54;19.30;45.90
78788;DHT22;68131;52.508;5.502;2023-05-19T13:10:24;19.30;46.30
78788;DHT22;68131;52.508;5.502;2023-05-19T13:12:58;19.20;46.60
78788;DHT22;68131;52.508;5.502;2023-05-19T13:15:29;19.20;46.50
78788;DHT22;68131;52.508;5.502;2023-05-19T13:18:05;19.20;45.70
78788;DHT22;68131;52.508;5.502;2023-05-19T13:20:36;19.20;45.80
78788;DHT22;68131;52.508;5.502;2023-05-19T13:23:08;19.30;45.80
78788;DHT22;68131;52.508;5.502;2023-05-19T13:25:39;19.40;45.80
78788;DHT22;68131;52.508;5.502;2023-05-19T13:28:13;19.40;45.80
78788;DHT22;68131;52.508;5.502;2023-05-19T13:30:46;19.50;46.30
78788;DHT22;68131;52.508;5.502;2023-05-19T13:33:16;19.60;45.80
78788;DHT22;68131;52.508;5.502;2023-05-19T13:35:47;19.50;45.90
78788;DHT22;68131;52.508;5.502;2023-05-19T13:38:16;19.50;46.10
78788;DHT22;68131;52.508;5.502;2023-05-19T13:40:47;19.50;45.80
78788;DHT22;68131;52.508;5.502;2023-05-19T13:43:20;19.60;45.80
78788;DHT22;68131;52.508;5.502;2023-05-19T13:45:51;19.70;46.00
78788;DHT22;68131;52.508;5.502;2023-05-19T13:48:24;19.80;46.00
78788;DHT22;68131;52.508;5.502;2023-05-19T13:50:56;19.80;45.70
78788;DHT22;68131;52.508;5.502;2023-05-19T13:53:25;19.80;45.70
78788;DHT22;68131;52.508;5.502;2023-05-19T13:55:56;19.70;45.80
78788;DHT22;68131;52.508;5.502;2023-05-19T13:58:29;19.70;45.90
78788;DHT22;68131;52.508;5.502;2023-05-19T14:01:04;19.70;45.90
78788;DHT22;68131;52.508;5.502;2023-05-19T14:03:36;19.60;46.10
78788;DHT22;68131;52.508;5.502;2023-05-19T14:06:10;19.60;46.20
78788;DHT22;68131;52.508;5.502;2023-05-19T14:08:39;19.60;46.50
78788;DHT22;68131;52.508;5.502;2023-05-19T14:11:09;19.70;46.60
78788;DHT22;68131;52.508;5.502;2023-05-19T14:13:42;19.70;46.60
78788;DHT22;68131;52.508;5.502;2023-05-19T14:16:11;19.70;46.70
78788;DHT22;68131;52.508;5.502;2023-05-19T14:18:40;19.80;46.30
78788;DHT22;68131;52.508;5.502;2023-05-19T14:21:12;19.80;46.30
78788;DHT22;68131;52.508;5.502;2023-05-19T14:23:42;19.80;46.50
78788;DHT22;68131;52.508;5.502;2023-05-19T14:26:13;19.80;46.60
78788;DHT22;68131;52.508;5.502;2023-05-19T14:28:47;19.90;46.30
78788;DHT22;68131;52.508;5.502;2023-05-19T14:31:16;19.90;46.00
78788;DHT22;68131;52.508;5.502;2023-05-19T14:33:49;19.90;46.40
78788;DHT22;68131;52.508;5.502;2023-05-19T14:36:19;19.90;46.00
78788;DHT22;68131;52.508;5.502;2023-05-19T14:38:48;20.00;45.90
78788;DHT22;68131;52.508;5.502;2023-05-19T14:41:18;20.00;45.60
78788;DHT22;68131;52.508;5.502;2023-05-19T14:43:55;20.00;46.00
78788;DHT22;68131;52.508;5.502;2023-05-19T14:46:24;19.90;45.80
78788;DHT22;68131;52.508;5.502;2023-05-19T14:48:53;19.90;45.90
78788;DHT22;68131;52.508;5.502;2023-05-19T14:51:23;19.90;46.20
78788;DHT22;68131;52.508;5.502;2023-05-19T14:53:53;19.90;46.50
78788;DHT22;68131;52.508;5.502;2023-05-19T14:56:26;19.90;46.70
78788;DHT22;68131;52.508;5.502;2023-05-19T14:58:58;19.80;47.30
78788;DHT22;68131;52.508;5.502;2023-05-19T15:01:32;19.90;46.90
78788;DHT22;68131;52.508;5.502;2023-05-19T15:04:03;19.90;46.90
78788;DHT22;68131;52.508;5.502;2023-05-19T15:06:33;19.90;47.10
78788;DHT22;68131;52.508;5.502;2023-05-19T15:09:02;19.90;47.20
78788;DHT22;68131;52.508;5.502;2023-05-19T15:11:34;19.90;47.10
78788;DHT22;68131;52.508;5.502;2023-05-19T15:14:06;19.90;47.30
78788;DHT22;68131;52.508;5.502;2023-05-19T15:16:36;20.00;47.40
78788;DHT22;68131;52.508;5.502;2023-05-19T15:19:08;20.00;47.50
78788;DHT22;68131;52.508;5.502;2023-05-19T15:21:39;19.90;47.30
78788;DHT22;68131;52.508;5.502;2023-05-19T15:24:09;19.80;47.50
78788;DHT22;68131;52.508;5.502;2023-05-19T15:26:44;19.80;47.30
78788;DHT22;68131;52.508;5.502;2023-05-19T15:29:20;19.80;47.20
78788;DHT22;68131;52.508;5.502;2023-05-19T15:31:49;19.90;47.10
78788;DHT22;68131;52.508;5.502;2023-05-19T15:34:22;20.00;47.30
78788;DHT22;68131;52.508;5.502;2023-05-19T15:36:51;20.00;47.10
78788;DHT22;68131;52.508;5.502;2023-05-19T15:39:22;20.00;46.90
78788;DHT22;68131;52.508;5.502;2023-05-19T15:41:52;20.00;47.20
78788;DHT22;68131;52.508;5.502;2023-05-19T15:44:24;20.00;47.10
78788;DHT22;68131;52.508;5.502;2023-05-19T15:46:57;20.00;47.10
78788;DHT22;68131;52.508;5.502;2023-05-19T15:49:29;20.10;47.00
78788;DHT22;68131;52.508;5.502;2023-05-19T15:52:04;20.10;47.00
78788;DHT22;68131;52.508;5.502;2023-05-19T15:54:35;20.10;47.20
78788;DHT22;68131;52.508;5.502;2023-05-19T15:57:04;20.10;47.00
78788;DHT22;68131;52.508;5.502;2023-05-19T15:59:45;20.10;47.20
78788;DHT22;68131;52.508;5.502;2023-05-19T16:02:14;20.00;47.10
78788;DHT22;68131;52.508;5.502;2023-05-19T16:04:45;19.90;47.50
78788;DHT22;68131;52.508;5.502;2023-05-19T16:07:14;19.80;47.60
78788;DHT22;68131;52.508;5.502;2023-05-19T16:09:46;19.90;47.60
78788;DHT22;68131;52.508;5.502;2023-05-19T16:12:16;19.90;47.60